NCAR-RAP Real-Time Weather Data

Output produced by METARs form (19 June 2019  12:04 UTC)
found at http://weather.rap.ucar.edu/surface/
 
RJKA 191000Z 30007KT 250V340 9999 FEW015 SCT025 BKN035 26/24 Q1002
 
ROAH 191130Z 23009KT 9999 SCT010 BKN050 27/26 Q1006 RMK 3CU010 6SC050 A2973
 
RODN 191156Z AUTO 21008KT 10SM CLR 27/25 A2975 RMK AO2 LTG DSNT NW SLP079 T02660253 10299 20266 51013 $
 
ROIG 191100Z 21007KT 9999 FEW013 BKN210 28/27 Q1007
 
ROMY 191100Z 22014KT 9999 FEW007 BKN/// 28/27 Q1007
 
RORS 191000Z 20007KT 9999 FEW010 BKN180 BKN/// 28/27 Q1007